Time;durP1;ratioP1;P1;durP2;ratioP2;P2;SDS_P1;SDS_P2;PMS_P1;PMS_P2;Temp;Humidity;BMP_temperature;BMP_pressure;BME280_temperature;BME280_humidity;BME280_pressure;Samples;Min_cycle;Max_cycle;Signal;HPM_P1;HPM_P2
2023/02/24 00:02:54;;;;;;;35.47;3.63;;;8.30;99.90;;;;;;5092396;28;20200;-77
2023/02/24 00:05:22;;;;;;;11.70;2.55;;;8.00;99.90;;;;;;5074293;28;20173;-77
2023/02/24 00:07:48;;;;;;;22.08;3.30;;;8.00;99.90;;;;;;5092363;28;20169;-77
2023/02/24 00:10:18;;;;;;;12.43;3.20;;;7.90;99.90;;;;;;5092958;28;20198;-77
2023/02/24 00:12:46;;;;;;;22.17;2.90;;;7.70;99.90;;;;;;5096278;28;20210;-81
2023/02/24 00:15:14;;;;;;;30.23;3.35;;;7.70;99.90;;;;;;5096538;28;20162;-77
2023/02/24 00:17:40;;;;;;;24.45;3.28;;;7.70;99.90;;;;;;5096082;28;20532;-78
2023/02/24 00:20:06;;;;;;;14.60;2.72;;;8.00;99.90;;;;;;5078249;28;20587;-77
2023/02/24 00:22:32;;;;;;;29.38;3.42;;;7.80;99.90;;;;;;5096220;28;20186;-81
2023/02/24 00:25:01;;;;;;;16.10;3.05;;;7.90;99.90;;;;;;5096153;28;20158;-78
2023/02/24 00:27:27;;;;;;;12.93;3.00;;;7.90;99.90;;;;;;5096098;28;20174;-78
2023/02/24 00:29:52;;;;;;;28.83;4.30;;;8.00;99.90;;;;;;5095985;28;20208;-79
2023/02/24 00:32:18;;;;;;;22.17;3.00;;;7.70;99.90;;;;;;5096083;28;20636;-77
2023/02/24 00:34:45;;;;;;;14.93;3.35;;;7.70;99.90;;;;;;5096289;28;20517;-78
2023/02/24 00:37:11;;;;;;;15.13;3.13;;;7.70;99.90;;;;;;5096167;28;20249;-81
2023/02/24 00:39:40;;;;;;;21.52;3.67;;;7.70;99.90;;;;;;5096108;28;20181;-77
2023/02/24 00:42:06;;;;;;;38.33;3.97;;;7.70;99.90;;;;;;5095919;28;20158;-77
2023/02/24 00:44:37;;;;;;;20.52;3.47;;;7.90;99.90;;;;;;5095930;28;20158;-80
2023/02/24 00:47:05;;;;;;;28.77;2.85;;;8.10;99.90;;;;;;5096046;28;20170;-81
2023/02/24 00:49:31;;;;;;;16.63;3.03;;;7.80;99.90;;;;;;5077297;28;20278;-82
2023/02/24 00:51:58;;;;;;;21.20;2.75;;;7.70;99.90;;;;;;5096092;28;20166;-79
2023/02/24 00:54:27;;;;;;;17.65;4.60;;;7.80;99.90;;;;;;5095658;28;20193;-78
2023/02/24 00:56:53;;;;;;;22.20;2.63;;;7.90;99.90;;;;;;5077798;28;20158;-79
2023/02/24 00:59:21;;;;;;;34.20;2.45;;;7.70;99.90;;;;;;5095351;28;20185;-78
2023/02/24 01:01:49;;;;;;;19.85;3.03;;;7.90;99.90;;;;;;5095285;28;20161;-78
2023/02/24 01:04:15;;;;;;;20.35;2.85;;;7.90;99.90;;;;;;5095662;28;20178;-78
2023/02/24 01:06:43;;;;;;;29.60;4.18;;;8.10;99.90;;;;;;5095438;28;20166;-79
2023/02/24 01:09:12;;;;;;;23.20;2.92;;;8.00;99.90;;;;;;5095258;28;20289;-80
2023/02/24 01:14:25;;;;;;;14.27;2.40;;;8.00;99.90;;;;;;5095406;28;20779;-81
2023/02/24 01:16:52;;;;;;;21.25;2.90;;;7.90;99.90;;;;;;5095629;28;20158;-79
2023/02/24 01:19:20;;;;;;;17.67;3.00;;;7.90;99.90;;;;;;5096038;28;20170;-81
2023/02/24 01:21:46;;;;;;;23.73;3.28;;;7.70;99.90;;;;;;5095432;28;20154;-78
2023/02/24 01:24:14;;;;;;;12.45;2.97;;;7.70;99.90;;;;;;5095638;28;20178;-81
2023/02/24 01:26:40;;;;;;;24.65;2.72;;;7.90;99.90;;;;;;5095660;28;20249;-78
2023/02/24 01:29:08;;;;;;;30.83;4.80;;;7.90;99.90;;;;;;5094879;28;20198;-78
2023/02/24 01:31:37;;;;;;;22.70;2.75;;;7.90;99.90;;;;;;5095399;28;20172;-79
2023/02/24 01:34:04;;;;;;;30.13;4.90;;;7.60;99.90;;;;;;5095079;28;20182;-79
2023/02/24 01:36:31;;;;;;;29.88;3.90;;;7.30;99.90;;;;;;5095050;28;20166;-79
2023/02/24 01:39:00;;;;;;;22.30;3.72;;;7.40;99.90;;;;;;5094781;28;20162;-80
2023/02/24 01:41:26;;;;;;;21.42;3.63;;;7.50;99.90;;;;;;5095127;28;20166;-80
2023/02/24 01:44:01;;;;;;;21.08;4.00;;;7.60;99.90;;;;;;5095261;28;20688;-80
2023/02/24 01:46:32;;;;;;;19.35;4.07;;;7.70;99.90;;;;;;5095247;28;20188;-82
2023/02/24 01:49:16;;;;;;;14.52;2.78;;;7.70;99.90;;;;;;5094739;28;20209;-87
2023/02/24 01:51:56;;;;;;;24.60;4.18;;;7.70;99.90;;;;;;5098186;28;20176;-81
2023/02/24 01:54:26;;;;;;;26.88;4.45;;;7.80;99.90;;;;;;5103664;28;20217;-77
2023/02/24 01:56:53;;;;;;;10.95;3.67;;;7.70;99.90;;;;;;5087013;28;20166;-78
2023/02/24 01:59:22;;;;;;;13.70;3.45;;;7.70;99.90;;;;;;5097739;28;20189;-80
2023/02/24 02:01:52;;;;;;;27.20;5.05;;;7.80;99.90;;;;;;5094583;28;20176;-80
2023/02/24 02:04:25;;;;;;;19.23;3.53;;;8.00;99.90;;;;;;5094417;28;20613;-81
2023/02/24 02:06:52;;;;;;;24.23;3.60;;;7.80;99.90;;;;;;5094285;28;20165;-81
2023/02/24 02:09:17;;;;;;;20.65;3.72;;;7.60;99.90;;;;;;5094679;28;20213;-80
2023/02/24 02:11:48;;;;;;;34.65;4.22;;;7.50;99.90;;;;;;5094587;28;20516;-82
2023/02/24 02:14:16;;;;;;;17.95;3.70;;;7.40;99.90;;;;;;5094156;28;20247;-82
2023/02/24 02:16:54;;;;;;;29.02;4.93;;;7.20;99.90;;;;;;5094191;28;20195;-88
2023/02/24 02:19:58;;;;;;;25.75;4.30;;;7.00;99.90;;;;;;5094374;28;20173;-84
2023/02/24 02:22:46;;;;;;;22.58;2.97;;;7.00;99.90;;;;;;5094257;28;20221;-83
2023/02/24 02:25:28;;;;;;;17.27;2.85;;;7.10;99.90;;;;;;5094386;28;20162;-85
2023/02/24 02:28:02;;;;;;;20.13;3.58;;;7.20;99.90;;;;;;5094113;28;20170;-85
2023/02/24 02:31:03;;;;;;;13.95;3.45;;;7.30;99.90;;;;;;5093880;28;20745;-83
2023/02/24 02:33:57;;;;;;;16.25;3.13;;;7.50;99.90;;;;;;5093528;28;20212;-85
2023/02/24 02:36:53;;;;;;;13.68;3.65;;;7.40;99.90;;;;;;5094111;28;20161;-80
2023/02/24 02:39:51;;;;;;;17.48;2.95;;;7.30;99.90;;;;;;5039591;28;20222;-79
2023/02/24 02:42:39;;;;;;;32.25;4.32;;;7.30;99.90;;;;;;5093680;28;20636;-80
2023/02/24 02:45:12;;;;;;;13.82;3.13;;;7.70;99.90;;;;;;5093745;28;20241;-78
2023/02/24 02:47:50;;;;;;;17.42;4.40;;;7.90;99.90;;;;;;5093786;28;20674;-85
2023/02/24 02:50:51;;;;;;;12.70;3.25;;;7.90;99.90;;;;;;5093822;28;20204;-88
2023/02/24 02:54:00;;;;;;;19.95;3.72;;;8.00;99.90;;;;;;5043631;28;20205;-82
2023/02/24 02:56:35;;;;;;;21.67;3.67;;;7.80;99.90;;;;;;5092779;28;20185;-79
2023/02/24 02:59:04;;;;;;;15.63;3.58;;;7.70;99.90;;;;;;5093587;28;20222;-79
2023/02/24 03:01:35;;;;;;;15.15;3.42;;;7.60;99.90;;;;;;5093514;28;20667;-81
2023/02/24 03:04:05;;;;;;;22.38;3.80;;;7.50;99.90;;;;;;5093245;28;20193;-84
2023/02/24 03:06:33;;;;;;;13.25;4.38;;;7.70;99.90;;;;;;5093840;28;20517;-83
2023/02/24 03:09:11;;;;;;;27.17;3.60;;;7.90;99.90;;;;;;5093456;28;20201;-80
2023/02/24 03:11:41;;;;;;;15.10;3.20;;;7.70;99.90;;;;;;5093872;28;20701;-82
2023/02/24 03:14:10;;;;;;;12.93;2.47;;;7.90;99.90;;;;;;5093280;28;20240;-84
2023/02/24 03:16:40;;;;;;;18.35;2.72;;;8.00;99.90;;;;;;5093231;28;20166;-78
2023/02/24 03:19:09;;;;;;;16.63;3.28;;;8.00;99.90;;;;;;5093162;28;20228;-79
2023/02/24 03:21:44;;;;;;;19.55;3.17;;;7.70;99.90;;;;;;5093140;28;20158;-78
2023/02/24 03:24:10;;;;;;;18.52;3.10;;;7.50;99.90;;;;;;5092767;28;20206;-80
2023/02/24 03:26:48;;;;;;;16.85;3.35;;;7.50;99.90;;;;;;5093080;28;20563;-78
2023/02/24 03:29:29;;;;;;;29.50;4.63;;;7.60;99.90;;;;;;5092970;28;20209;-80
2023/02/24 03:32:09;;;;;;;27.75;3.75;;;7.60;99.90;;;;;;5092806;28;20622;-80
2023/02/24 03:34:55;;;;;;;16.67;4.10;;;7.90;99.90;;;;;;5093150;28;20165;-78
2023/02/24 03:37:25;;;;;;;19.30;3.67;;;7.80;99.90;;;;;;5092652;28;20178;-79
2023/02/24 03:39:53;;;;;;;16.23;3.55;;;7.90;99.90;;;;;;5092851;28;20185;-83
2023/02/24 03:42:20;;;;;;;17.67;3.40;;;8.00;99.90;;;;;;5092902;28;20177;-84
2023/02/24 03:44:47;;;;;;;20.08;3.08;;;7.80;99.90;;;;;;5092866;28;20157;-83
2023/02/24 03:47:19;;;;;;;15.90;3.45;;;8.00;99.90;;;;;;5096706;28;20193;-78
2023/02/24 03:49:45;;;;;;;23.27;3.42;;;8.10;99.90;;;;;;5097111;28;20244;-82
2023/02/24 03:52:35;;;;;;;16.13;2.60;;;8.20;99.90;;;;;;5097028;28;20190;-80
2023/02/24 03:55:22;;;;;;;14.98;2.63;;;8.00;99.90;;;;;;5096883;28;20166;-83
2023/02/24 03:58:19;;;;;;;16.00;3.20;;;8.20;99.90;;;;;;5096808;28;20170;-79
2023/02/24 04:00:51;;;;;;;11.18;3.47;;;8.10;99.90;;;;;;5097104;28;20260;-79
2023/02/24 04:03:40;;;;;;;14.90;2.28;;;8.10;99.90;;;;;;5096523;28;20182;-78
2023/02/24 04:06:26;;;;;;;19.17;3.30;;;7.90;99.90;;;;;;5096749;28;20169;-81
2023/02/24 04:09:16;;;;;;;27.98;3.88;;;8.10;99.90;;;;;;5096489;28;20205;-80
2023/02/24 04:11:48;;;;;;;19.83;5.00;;;8.30;99.90;;;;;;5096671;28;20477;-80
2023/02/24 04:14:39;;;;;;;20.45;2.60;;;8.10;99.90;;;;;;5096964;28;20224;-78
2023/02/24 04:17:12;;;;;;;17.73;3.05;;;8.10;99.90;;;;;;5067634;28;20268;-78
2023/02/24 04:19:41;;;;;;;15.63;2.60;;;8.10;99.90;;;;;;5096687;28;20177;-84
2023/02/24 04:22:09;;;;;;;18.17;3.28;;;8.30;99.90;;;;;;5099788;28;20185;-78
2023/02/24 04:24:36;;;;;;;21.13;4.15;;;8.30;99.90;;;;;;5101567;28;20660;-79
2023/02/24 04:27:07;;;;;;;39.85;4.00;;;8.30;99.90;;;;;;5096398;28;20173;-79
2023/02/24 04:29:37;;;;;;;20.58;2.80;;;8.20;99.90;;;;;;5096338;28;20209;-84
2023/02/24 04:32:07;;;;;;;21.90;4.05;;;8.20;99.90;;;;;;5096057;28;20161;-79
2023/02/24 04:34:32;;;;;;;12.80;3.63;;;8.20;99.90;;;;;;5095914;28;20170;-79
2023/02/24 04:37:01;;;;;;;24.73;2.83;;;8.40;99.90;;;;;;5096082;28;20512;-79
2023/02/24 04:39:27;;;;;;;18.88;2.75;;;8.40;99.90;;;;;;5096204;28;20174;-78
2023/02/24 04:41:53;;;;;;;21.80;3.83;;;8.60;99.90;;;;;;5096291;28;20170;-81
2023/02/24 04:44:20;;;;;;;9.70;3.13;;;8.50;99.90;;;;;;5095885;28;20182;-85
2023/02/24 04:46:49;;;;;;;11.30;2.92;;;8.50;99.90;;;;;;5096210;28;20166;-87
2023/02/24 04:49:16;;;;;;;13.43;3.13;;;8.40;99.90;;;;;;5095615;28;20223;-81
2023/02/24 04:51:43;;;;;;;20.83;4.72;;;8.50;99.90;;;;;;5096234;28;20166;-79
2023/02/24 04:54:12;;;;;;;15.35;4.05;;;8.40;99.90;;;;;;5095925;28;20193;-86
2023/02/24 04:56:39;;;;;;;23.55;4.32;;;8.30;99.90;;;;;;5095597;28;20560;-86
2023/02/24 04:59:05;;;;;;;16.60;3.40;;;8.20;99.90;;;;;;5095832;28;20158;-84
2023/02/24 05:01:31;;;;;;;16.85;3.38;;;8.10;99.90;;;;;;5095696;28;20253;-83
2023/02/24 05:03:58;;;;;;;21.60;3.83;;;8.10;99.90;;;;;;5095787;28;20296;-82
2023/02/24 05:06:24;;;;;;;13.82;4.35;;;8.10;99.90;;;;;;5095346;28;20189;-83
2023/02/24 05:08:51;;;;;;;16.25;3.88;;;8.10;99.90;;;;;;5095617;28;20662;-85
2023/02/24 05:11:17;;;;;;;15.85;3.88;;;8.00;99.90;;;;;;5095712;28;20169;-83
2023/02/24 05:13:44;;;;;;;35.45;3.58;;;8.10;99.90;;;;;;5095173;28;20190;-84
2023/02/24 05:16:12;;;;;;;16.80;4.50;;;8.10;99.90;;;;;;5096370;28;20521;-81
2023/02/24 05:18:38;;;;;;;13.98;3.78;;;8.20;99.90;;;;;;5095387;28;20161;-86
2023/02/24 05:23:53;;;;;;;20.92;3.50;;;8.20;99.90;;;;;;5095359;28;20209;-82
2023/02/24 05:26:24;;;;;;;19.98;3.92;;;8.30;99.90;;;;;;5095352;28;20185;-79
2023/02/24 05:28:53;;;;;;;29.45;4.20;;;8.30;99.90;;;;;;5095179;28;20241;-82
2023/02/24 05:31:20;;;;;;;29.67;4.45;;;8.30;99.90;;;;;;5095001;28;20170;-85
2023/02/24 05:33:48;;;;;;;18.50;3.35;;;8.30;99.90;;;;;;5095288;28;20181;-86
2023/02/24 05:36:17;;;;;;;30.40;3.28;;;8.20;99.90;;;;;;5094924;28;20165;-80
2023/02/24 05:38:45;;;;;;;24.70;3.13;;;8.40;99.90;;;;;;5094993;28;20196;-81
2023/02/24 05:41:17;;;;;;;17.27;3.70;;;8.10;99.90;;;;;;5094884;28;20625;-79
2023/02/24 05:43:52;;;;;;;14.05;2.97;;;8.00;99.90;;;;;;5095246;28;20197;-86
2023/02/24 05:46:31;;;;;;;20.48;3.45;;;8.10;99.90;;;;;;5095015;28;20216;-85
2023/02/24 05:51:35;;;;;;;17.58;3.30;;;7.70;99.90;;;;;;5053162;28;20203;-77
2023/02/24 05:54:06;;;;;;;15.40;2.97;;;7.70;99.90;;;;;;5053142;28;20225;-78
2023/02/24 05:56:33;;;;;;;17.77;4.15;;;7.80;99.90;;;;;;5053996;28;20258;-79
2023/02/24 05:59:03;;;;;;;10.85;2.63;;;7.90;99.90;;;;;;5054079;28;20198;-84
2023/02/24 06:01:31;;;;;;;19.88;3.03;;;8.00;99.90;;;;;;5054238;28;20172;-84
2023/02/24 06:04:04;;;;;;;25.95;3.90;;;7.90;99.90;;;;;;5054301;28;20601;-77
2023/02/24 06:06:39;;;;;;;16.60;3.10;;;8.10;99.90;;;;;;5054291;28;20262;-79
2023/02/24 06:09:12;;;;;;;13.63;2.45;;;8.10;99.90;;;;;;5053224;28;20252;-85
2023/02/24 06:11:39;;;;;;;8.50;1.85;;;8.10;99.90;;;;;;5052724;28;20635;-77
2023/02/24 06:14:06;;;;;;;11.20;2.28;;;7.90;99.90;;;;;;5053963;28;20191;-77
2023/02/24 06:16:33;;;;;;;12.60;2.30;;;7.80;99.90;;;;;;5053802;28;20258;-78
2023/02/24 06:18:59;;;;;;;5.72;1.75;;;7.60;99.90;;;;;;5053387;28;20306;-78
2023/02/24 06:21:28;;;;;;;10.05;2.05;;;7.60;99.90;;;;;;5053840;28;20246;-78
2023/02/24 06:23:54;;;;;;;12.30;2.17;;;7.30;99.90;;;;;;5053552;28;20187;-77
2023/02/24 06:26:20;;;;;;;18.17;2.60;;;7.30;99.90;;;;;;5051988;28;20167;-78
2023/02/24 06:28:46;;;;;;;10.20;2.97;;;7.40;99.90;;;;;;5053573;28;20214;-77
2023/02/24 06:31:13;;;;;;;21.58;2.47;;;7.30;99.90;;;;;;5052379;28;20201;-78
2023/02/24 06:33:40;;;;;;;24.58;3.75;;;7.30;99.90;;;;;;5053451;28;20289;-78
2023/02/24 06:36:06;;;;;;;11.48;2.80;;;7.30;99.90;;;;;;5053276;28;20202;-78
2023/02/24 06:38:36;;;;;;;10.57;2.78;;;7.20;99.90;;;;;;5053375;28;20250;-77
2023/02/24 06:41:03;;;;;;;12.43;2.78;;;7.20;99.90;;;;;;5053415;28;20174;-78
2023/02/24 06:43:31;;;;;;;25.38;3.45;;;7.20;99.90;;;;;;5052365;28;20690;-78
2023/02/24 06:45:58;;;;;;;6.35;2.25;;;7.10;99.90;;;;;;5053287;28;20228;-77
2023/02/24 06:48:24;;;;;;;14.90;2.50;;;7.00;99.90;;;;;;5053205;28;20195;-77
2023/02/24 06:50:50;;;;;;;11.77;2.70;;;6.90;99.90;;;;;;5052848;28;20221;-78
2023/02/24 06:53:17;;;;;;;11.80;3.45;;;7.00;99.90;;;;;;5053554;28;20644;-79
2023/02/24 06:55:45;;;;;;;6.80;2.38;;;7.00;99.90;;;;;;5053935;28;20628;-87
2023/02/24 06:58:16;;;;;;;13.07;2.55;;;7.10;99.90;;;;;;5053774;28;20175;-87
2023/02/24 07:00:49;;;;;;;17.20;3.00;;;7.10;99.90;;;;;;5053658;28;20233;-80
2023/02/24 07:03:16;;;;;;;9.00;2.70;;;7.20;99.90;;;;;;5053709;28;20647;-77
2023/02/24 07:06:09;;;;;;;13.18;2.75;;;7.10;99.90;;;;;;5053755;28;20167;-86
2023/02/24 07:08:36;;;;;;;9.18;2.58;;;7.00;99.90;;;;;;5053471;28;20174;-87
2023/02/24 07:11:05;;;;;;;16.45;2.40;;;7.10;99.90;;;;;;5053441;28;20203;-82
2023/02/24 07:13:31;;;;;;;11.00;3.35;;;7.20;99.90;;;;;;5053605;28;20175;-87
2023/02/24 07:16:05;;;;;;;16.77;2.90;;;7.20;99.90;;;;;;5052535;28;20274;-84
2023/02/24 07:18:35;;;;;;;11.88;2.60;;;7.00;99.90;;;;;;5053619;28;20197;-78
2023/02/24 07:21:10;;;;;;;10.98;2.40;;;7.00;99.90;;;;;;5051873;28;20228;-85
2023/02/24 07:23:36;;;;;;;4.13;2.10;;;7.00;99.90;;;;;;5052920;28;20193;-86
2023/02/24 07:26:08;;;;;;;6.07;2.15;;;6.90;99.90;;;;;;5053079;28;20261;-77
2023/02/24 07:28:38;;;;;;;11.13;2.10;;;7.00;99.90;;;;;;5053326;28;20163;-77
2023/02/24 07:31:07;;;;;;;23.50;2.83;;;6.90;99.90;;;;;;5053320;28;20178;-77
2023/02/24 07:33:35;;;;;;;22.10;3.53;;;7.00;99.90;;;;;;5051836;28;20292;-87
2023/02/24 07:36:07;;;;;;;10.40;2.42;;;7.10;99.90;;;;;;5052213;28;20171;-86
2023/02/24 07:38:34;;;;;;;16.75;3.33;;;7.20;99.90;;;;;;5052839;28;20163;-87
2023/02/24 07:41:01;;;;;;;6.93;2.33;;;7.40;99.90;;;;;;5053067;28;20159;-79
2023/02/24 07:43:26;;;;;;;9.80;2.78;;;7.40;99.90;;;;;;5052574;28;20210;-86
2023/02/24 07:45:52;;;;;;;8.52;2.50;;;7.50;99.90;;;;;;5053195;28;20182;-78
2023/02/24 07:48:20;;;;;;;24.00;3.00;;;7.50;99.90;;;;;;5052888;28;20186;-77
2023/02/24 07:50:45;;;;;;;16.42;3.28;;;7.70;99.90;;;;;;5052445;28;20249;-77
2023/02/24 07:53:11;;;;;;;16.38;2.45;;;7.90;99.90;;;;;;5052607;28;20218;-87
2023/02/24 07:55:36;;;;;;;14.43;2.45;;;7.90;99.90;;;;;;5052888;28;20167;-86
2023/02/24 07:58:04;;;;;;;18.45;3.60;;;8.10;99.90;;;;;;5053134;28;20179;-86
2023/02/24 08:00:48;;;;;;;6.22;2.05;;;8.10;99.90;;;;;;5053361;28;20167;-86
2023/02/24 08:03:14;;;;;;;12.68;1.85;;;8.20;99.90;;;;;;5053199;28;20581;-78
2023/02/24 08:05:42;;;;;;;22.10;2.85;;;8.20;99.90;;;;;;5051856;28;20257;-78
2023/02/24 08:08:08;;;;;;;13.75;2.72;;;8.00;99.90;;;;;;5051401;28;20505;-82
2023/02/24 08:10:35;;;;;;;6.93;1.90;;;8.00;99.90;;;;;;5051994;28;20345;-83
2023/02/24 08:13:03;;;;;;;19.58;2.88;;;8.00;99.90;;;;;;5051706;28;20268;-78
2023/02/24 08:15:32;;;;;;;16.38;2.45;;;7.90;99.90;;;;;;5052474;28;20628;-87
2023/02/24 08:17:59;;;;;;;10.57;2.55;;;7.90;99.90;;;;;;5053058;28;20221;-87
2023/02/24 08:20:34;;;;;;;16.08;2.20;;;7.90;99.90;;;;;;5053047;28;20167;-84
2023/02/24 08:23:00;;;;;;;14.73;2.58;;;8.10;99.90;;;;;;5051873;28;20551;-78
2023/02/24 08:25:34;;;;;;;20.50;2.63;;;7.90;99.90;;;;;;5053576;28;20166;-86
2023/02/24 08:28:04;;;;;;;13.50;2.30;;;8.00;99.90;;;;;;5052905;28;20175;-86
2023/02/24 08:30:37;;;;;;;16.67;2.60;;;8.00;99.90;;;;;;5052536;28;20612;-78
2023/02/24 08:33:04;;;;;;;18.58;2.33;;;7.90;99.90;;;;;;5054822;28;20195;-86
2023/02/24 08:35:34;;;;;;;17.20;2.20;;;8.10;99.90;;;;;;5055521;28;20197;-87
2023/02/24 08:38:13;;;;;;;12.23;2.28;;;7.90;99.90;;;;;;5056664;28;20624;-83
2023/02/24 08:40:49;;;;;;;9.82;2.88;;;7.80;99.90;;;;;;5056622;28;20160;-78
2023/02/24 08:43:31;;;;;;;8.55;2.30;;;7.90;99.90;;;;;;5056509;28;20217;-81
2023/02/24 08:46:17;;;;;;;10.70;3.10;;;8.10;99.90;;;;;;5056733;28;20187;-87
2023/02/24 08:48:49;;;;;;;10.95;2.22;;;8.20;99.90;;;;;;5056238;28;20221;-86
2023/02/24 08:51:22;;;;;;;12.90;2.70;;;8.10;99.90;;;;;;5055174;28;20182;-83
2023/02/24 08:53:52;;;;;;;10.57;2.30;;;8.00;99.90;;;;;;5056642;28;20194;-83
2023/02/24 08:56:22;;;;;;;22.83;2.92;;;7.90;99.90;;;;;;5056252;28;20175;-78
2023/02/24 08:58:55;;;;;;;8.85;3.55;;;8.10;99.90;;;;;;5054582;28;20187;-77
2023/02/24 09:01:33;;;;;;;13.20;2.63;;;8.20;99.90;;;;;;5055400;28;20193;-77
2023/02/24 09:04:02;;;;;;;11.02;2.35;;;8.10;99.90;;;;;;5055246;28;20670;-77
2023/02/24 09:06:44;;;;;;;14.05;2.50;;;8.20;99.90;;;;;;5055263;28;20179;-78
2023/02/24 09:09:20;;;;;;;15.55;2.28;;;8.30;99.90;;;;;;5055027;28;20198;-77
2023/02/24 09:11:57;;;;;;;8.55;2.75;;;8.40;99.90;;;;;;5055393;28;20179;-77
2023/02/24 09:14:26;;;;;;;8.43;2.42;;;8.40;99.90;;;;;;5055820;28;20530;-77
2023/02/24 09:17:01;;;;;;;18.30;2.88;;;8.60;99.90;;;;;;5054079;28;20208;-77
2023/02/24 09:22:30;;;;;;;14.55;2.40;;;8.60;99.90;;;;;;5054945;28;20175;-77
2023/02/24 09:25:16;;;;;;;4.22;2.08;;;8.50;99.90;;;;;;5054098;28;20270;-77
2023/02/24 09:27:51;;;;;;;11.50;2.88;;;8.60;99.90;;;;;;5055324;28;20247;-76
2023/02/24 09:30:36;;;;;;;6.45;2.03;;;8.90;99.90;;;;;;5037576;28;20647;-77
2023/02/24 09:33:06;;;;;;;14.82;2.70;;;9.10;99.90;;;;;;5053952;28;20282;-77
2023/02/24 09:35:35;;;;;;;6.97;1.50;;;9.20;99.90;;;;;;5055434;28;20172;-77
2023/02/24 09:38:04;;;;;;;11.60;3.20;;;9.20;99.90;;;;;;5055076;28;20650;-77
2023/02/24 09:40:38;;;;;;;6.55;2.08;;;9.20;99.90;;;;;;5055649;28;20217;-77
2023/02/24 09:43:16;;;;;;;9.00;1.88;;;9.30;99.90;;;;;;5054892;28;20561;-78
2023/02/24 09:46:13;;;;;;;9.68;2.35;;;9.40;99.90;;;;;;5053882;28;20181;-78
2023/02/24 09:48:46;;;;;;;7.10;2.67;;;9.50;99.90;;;;;;5055038;28;20171;-77
2023/02/24 09:51:20;;;;;;;13.05;2.85;;;9.70;99.90;;;;;;5054746;28;20191;-77
2023/02/24 09:53:52;;;;;;;10.77;2.05;;;9.30;99.90;;;;;;5054867;28;20213;-77
2023/02/24 09:56:41;;;;;;;7.22;1.83;;;9.10;99.90;;;;;;5054887;28;20171;-77
2023/02/24 09:59:24;;;;;;;5.78;2.17;;;9.20;99.90;;;;;;5056479;28;20242;-77
2023/02/24 10:02:27;;;;;;;7.18;1.80;;;9.20;99.90;;;;;;5055551;28;20190;-77
2023/02/24 10:05:14;;;;;;;14.65;2.15;;;9.30;99.90;;;;;;5055111;28;20154;-77
2023/02/24 10:07:42;;;;;;;3.00;1.55;;;9.30;99.90;;;;;;5054390;28;20204;-77
2023/02/24 10:10:18;;;;;;;13.57;2.15;;;9.20;99.90;;;;;;5054841;28;20203;-77
2023/02/24 10:13:13;;;;;;;5.40;1.77;;;9.10;99.90;;;;;;5053914;28;20278;-78
2023/02/24 10:15:57;;;;;;;6.65;2.05;;;9.10;99.90;;;;;;5053069;28;20172;-77
2023/02/24 10:19:13;;;;;;;9.68;2.08;;;8.90;99.90;;;;;;5053020;28;20673;-77
2023/02/24 10:22:01;;;;;;;16.73;2.95;;;8.70;99.90;;;;;;5055273;28;20178;-78
2023/02/24 10:24:36;;;;;;;15.88;2.42;;;8.50;99.90;;;;;;5062371;28;20198;-78
2023/02/24 10:27:13;;;;;;;8.90;2.47;;;8.40;99.90;;;;;;5065192;28;20284;-77
2023/02/24 10:30:09;;;;;;;10.07;1.95;;;8.50;99.90;;;;;;5054449;28;20235;-77
2023/02/24 10:32:57;;;;;;;8.20;2.13;;;8.70;99.90;;;;;;5054370;28;20191;-77
2023/02/24 10:35:25;;;;;;;12.35;1.90;;;8.90;99.90;;;;;;5053960;28;20186;-76
2023/02/24 10:37:52;;;;;;;9.48;2.15;;;9.00;99.90;;;;;;5054572;28;20175;-80
2023/02/24 10:40:42;;;;;;;10.73;2.50;;;8.80;99.90;;;;;;5055548;28;20640;-80
2023/02/24 10:43:16;;;;;;;11.20;2.88;;;8.80;99.90;;;;;;5054916;28;20709;-88
2023/02/24 10:45:44;;;;;;;8.10;2.67;;;8.80;99.90;;;;;;5055450;28;20173;-80
2023/02/24 10:48:23;;;;;;;8.30;2.38;;;9.00;99.90;;;;;;5062102;28;20177;-92
2023/02/24 10:50:53;;;;;;;21.27;3.55;;;8.80;99.90;;;;;;5063273;28;20202;-77
2023/02/24 10:56:40;;;;;;;6.93;2.03;;;8.90;99.90;;;;;;5041455;28;20342;-79
2023/02/24 11:02:22;;;;;;;11.15;2.22;;;9.50;99.90;;;;;;5069987;28;20171;-77
2023/02/24 11:05:03;;;;;;;9.88;2.17;;;9.50;99.90;;;;;;5068118;28;20171;-76
2023/02/24 11:07:42;;;;;;;12.85;4.88;;;9.50;99.90;;;;;;5067808;28;20159;-78
2023/02/24 11:10:24;;;;;;;10.30;3.60;;;9.40;99.90;;;;;;5065979;28;20207;-77
2023/02/24 11:18:38;;;;;;;12.70;3.03;;;9.30;99.90;;;;;;5071282;28;20247;-78
2023/02/24 11:21:07;;;;;;;9.35;2.35;;;9.50;99.90;;;;;;5068541;28;20175;-78
2023/02/24 11:23:36;;;;;;;9.40;2.35;;;9.60;99.90;;;;;;5069482;28;20190;-77
2023/02/24 11:26:25;;;;;;;6.93;2.20;;;9.60;99.90;;;;;;5069411;28;20167;-77
2023/02/24 11:29:23;;;;;;;4.80;2.88;;;9.70;99.90;;;;;;5068732;28;20175;-78
2023/02/24 11:32:10;;;;;;;17.55;2.58;;;10.10;99.90;;;;;;5062937;28;20193;-76
2023/02/24 11:34:54;;;;;;;12.57;3.95;;;10.00;99.90;;;;;;5070204;28;20167;-77
2023/02/24 11:37:41;;;;;;;23.05;12.93;;;10.10;99.90;;;;;;5073314;28;20226;-77
2023/02/24 11:40:18;;;;;;;12.23;6.40;;;10.20;99.90;;;;;;5071790;28;20187;-77
2023/02/24 11:43:05;;;;;;;6.82;3.13;;;10.30;99.90;;;;;;5089694;28;20183;-78
2023/02/24 11:45:39;;;;;;;11.70;2.40;;;10.50;99.90;;;;;;5073398;28;20285;-77
2023/02/24 11:48:25;;;;;;;10.20;3.00;;;10.40;99.90;;;;;;5074478;28;20171;-77
2023/02/24 11:50:53;;;;;;;8.75;3.33;;;10.20;99.90;;;;;;5073618;28;20210;-79
2023/02/24 11:53:34;;;;;;;8.00;2.88;;;10.20;99.90;;;;;;5071482;28;20194;-77
2023/02/24 11:56:05;;;;;;;15.13;3.00;;;10.40;99.90;;;;;;5071766;28;20166;-77
2023/02/24 11:58:31;;;;;;;10.57;2.40;;;10.40;99.90;;;;;;5070802;28;20494;-77
2023/02/24 12:01:34;;;;;;;6.57;2.65;;;10.60;99.90;;;;;;5061979;28;20229;-77
2023/02/24 12:04:42;;;;;;;5.78;2.58;;;10.50;99.90;;;;;;5052932;28;20209;-78
2023/02/24 12:07:19;;;;;;;5.05;2.40;;;10.50;99.90;;;;;;5034541;28;20363;-77
2023/02/24 12:09:52;;;;;;;10.35;2.50;;;10.70;99.90;;;;;;5053234;28;20698;-77
2023/02/24 12:12:27;;;;;;;7.38;2.53;;;10.30;99.90;;;;;;5058895;28;20588;-77
2023/02/24 12:14:58;;;;;;;4.43;2.53;;;10.20;99.90;;;;;;5059213;28;20647;-77
2023/02/24 12:17:34;;;;;;;5.60;2.08;;;9.90;99.90;;;;;;5058223;28;20172;-77
2023/02/24 12:20:21;;;;;;;9.90;2.83;;;9.90;99.90;;;;;;5057594;28;20537;-78
2023/02/24 12:22:56;;;;;;;5.35;2.35;;;10.00;99.90;;;;;;5056681;28;20632;-78
2023/02/24 12:25:31;;;;;;;10.40;2.38;;;10.10;99.90;;;;;;5056806;28;20174;-76
2023/02/24 12:27:56;;;;;;;14.20;4.13;;;10.10;99.90;;;;;;5056623;28;20162;-77
2023/02/24 12:30:47;;;;;;;11.02;3.47;;;10.20;99.90;;;;;;5057009;28;20233;-77
2023/02/24 12:33:28;;;;;;;10.05;3.15;;;10.20;99.90;;;;;;5057871;28;20183;-78
2023/02/24 12:36:32;;;;;;;11.30;2.85;;;10.20;99.90;;;;;;5072493;28;20211;-79
2023/02/24 12:39:35;;;;;;;7.88;2.33;;;10.20;99.90;;;;;;5056951;28;20209;-79
2023/02/24 12:42:28;;;;;;;5.25;2.78;;;10.30;99.90;;;;;;5066332;28;20187;-78
2023/02/24 12:45:10;;;;;;;7.82;2.83;;;10.40;99.90;;;;;;5058601;28;20260;-79
2023/02/24 12:48:11;;;;;;;18.85;2.97;;;10.40;99.90;;;;;;5058230;28;20238;-79
2023/02/24 12:50:54;;;;;;;11.52;2.90;;;10.60;99.90;;;;;;5058903;28;20207;-79
2023/02/24 12:53:34;;;;;;;3.65;2.30;;;10.70;99.90;;;;;;5057956;28;20225;-80
2023/02/24 12:56:14;;;;;;;13.70;2.80;;;10.50;99.90;;;;;;5056777;28;20191;-79
2023/02/24 12:58:45;;;;;;;10.35;3.90;;;10.30;99.90;;;;;;5057081;28;20159;-79
2023/02/24 13:01:55;;;;;;;8.80;2.85;;;10.30;99.90;;;;;;5056270;28;20187;-78
2023/02/24 13:04:36;;;;;;;12.57;2.80;;;10.30;99.90;;;;;;5033121;28;20188;-78
2023/02/24 13:07:30;;;;;;;4.45;2.60;;;10.40;99.90;;;;;;5052661;28;20187;-79
2023/02/24 13:10:20;;;;;;;15.43;3.80;;;10.60;99.90;;;;;;5055368;28;20203;-78
2023/02/24 13:12:50;;;;;;;6.15;3.33;;;10.60;99.90;;;;;;5055283;28;20844;-79
2023/02/24 13:15:21;;;;;;;14.07;3.95;;;10.60;99.90;;;;;;5055549;28;20160;-78
2023/02/24 13:17:50;;;;;;;6.55;3.08;;;10.40;99.90;;;;;;5054552;28;20262;-78
2023/02/24 13:20:37;;;;;;;7.07;3.47;;;10.40;99.90;;;;;;5054976;28;20195;-78
2023/02/24 13:23:17;;;;;;;5.78;2.85;;;10.40;99.90;;;;;;5055580;28;20194;-78
2023/02/24 13:25:50;;;;;;;5.32;4.07;;;10.50;99.90;;;;;;5055079;28;20704;-78
2023/02/24 13:28:37;;;;;;;9.32;3.35;;;10.40;99.90;;;;;;5054429;28;20173;-77
2023/02/24 13:31:09;;;;;;;7.15;3.40;;;10.50;99.90;;;;;;5054565;28;20199;-77
2023/02/24 13:33:44;;;;;;;9.98;3.50;;;10.30;99.90;;;;;;5054542;28;20214;-77
2023/02/24 13:36:22;;;;;;;12.60;3.25;;;10.20;99.90;;;;;;5054517;28;20176;-77
2023/02/24 13:39:02;;;;;;;7.97;3.35;;;10.10;99.90;;;;;;5055430;28;20175;-78
2023/02/24 13:41:28;;;;;;;20.23;5.50;;;10.10;99.90;;;;;;5053409;28;20175;-80
2023/02/24 13:44:21;;;;;;;21.38;5.85;;;10.00;99.90;;;;;;5054429;28;20670;-77
2023/02/24 13:46:53;;;;;;;7.88;4.43;;;10.00;99.90;;;;;;5069878;28;20540;-83
2023/02/24 13:49:41;;;;;;;11.15;4.00;;;10.00;99.90;;;;;;5054777;28;20724;-82